Time;durP1;ratioP1;P1;durP2;ratioP2;P2;SDS_P1;SDS_P2;PMS_P1;PMS_P2;Temp;Humidity;BMP_temperature;BMP_pressure;BME280_temperature;BME280_humidity;BME280_pressure;Samples;Min_cycle;Max_cycle;Signal;HPM_P1;HPM_P2
2022/10/06 00:02:06;;;;;;;1.55;1.52;;;;;;;;;;5031883;28;20227;-62
2022/10/06 00:04:33;;;;;;;5.95;1.95;;;;;;;;;;5031964;28;20224;-63
2022/10/06 00:07:00;;;;;;;1.30;1.30;;;;;;;;;;5032214;28;20200;-64
2022/10/06 00:09:27;;;;;;;1.30;1.30;;;;;;;;;;5032018;28;20216;-63
2022/10/06 00:11:54;;;;;;;1.97;1.90;;;;;;;;;;5032050;28;20200;-64
2022/10/06 00:14:21;;;;;;;1.70;1.60;;;;;;;;;;5031731;28;20212;-64
2022/10/06 00:16:50;;;;;;;1.73;1.63;;;;;;;;;;5031771;28;20216;-64
2022/10/06 00:19:17;;;;;;;4.80;1.50;;;;;;;;;;5032099;28;20200;-64
2022/10/06 00:21:44;;;;;;;1.40;1.40;;;;;;;;;;5031672;28;20231;-64
2022/10/06 00:24:11;;;;;;;1.73;1.63;;;;;;;;;;5032230;28;20765;-64
2022/10/06 00:26:38;;;;;;;1.50;1.50;;;;;;;;;;5031459;28;20587;-64
2022/10/06 00:29:05;;;;;;;1.75;1.65;;;;;;;;;;5031890;28;20204;-64
2022/10/06 00:31:33;;;;;;;2.00;1.90;;;;;;;;;;5031448;28;20295;-62
2022/10/06 00:34:01;;;;;;;1.48;1.40;;;;;;;;;;5031486;28;20204;-61
2022/10/06 00:36:28;;;;;;;1.17;1.17;;;;;;;;;;5031168;28;20205;-62
2022/10/06 00:38:55;;;;;;;1.40;1.40;;;;;;;;;;5031123;28;20205;-61
2022/10/06 00:41:23;;;;;;;1.65;1.55;;;;;;;;;;5031417;28;20208;-61
2022/10/06 00:43:51;;;;;;;2.55;1.70;;;;;;;;;;5031238;28;20216;-62
2022/10/06 00:46:23;;;;;;;1.77;1.73;;;;;;;;;;5031080;28;20211;-61
2022/10/06 00:48:52;;;;;;;1.55;1.45;;;;;;;;;;5029372;28;20583;-63
2022/10/06 00:51:21;;;;;;;1.47;1.20;;;;;;;;;;5030880;28;20205;-64
2022/10/06 00:53:48;;;;;;;3.60;1.60;;;;;;;;;;5031217;28;20293;-64
2022/10/06 00:56:16;;;;;;;1.40;1.40;;;;;;;;;;5029599;28;20204;-64
2022/10/06 00:58:43;;;;;;;1.70;1.53;;;;;;;;;;5029878;28;20215;-64
2022/10/06 01:01:12;;;;;;;1.50;1.35;;;;;;;;;;5029657;28;20204;-64
2022/10/06 01:03:42;;;;;;;3.60;1.60;;;;;;;;;;5025605;28;20306;-64
2022/10/06 01:06:09;;;;;;;1.40;1.40;;;;;;;;;;5029721;28;20205;-64
2022/10/06 01:08:38;;;;;;;2.45;1.67;;;;;;;;;;5029738;28;20207;-64
2022/10/06 01:11:05;;;;;;;1.52;1.45;;;;;;;;;;5030495;28;20196;-64
2022/10/06 01:13:33;;;;;;;1.70;1.58;;;;;;;;;;5029763;28;20211;-64
2022/10/06 01:16:02;;;;;;;1.67;1.58;;;;;;;;;;5029659;28;20201;-64
2022/10/06 01:18:31;;;;;;;3.40;1.30;;;;;;;;;;5029217;28;20678;-64
2022/10/06 01:21:00;;;;;;;1.38;1.27;;;;;;;;;;5028238;28;20204;-64
2022/10/06 01:23:31;;;;;;;3.10;1.42;;;;;;;;;;5029802;28;20227;-64
2022/10/06 01:25:59;;;;;;;2.80;1.58;;;;;;;;;;5029629;28;20718;-64
2022/10/06 01:28:26;;;;;;;3.08;1.67;;;;;;;;;;5027532;28;20746;-64
2022/10/06 01:30:55;;;;;;;1.60;1.50;;;;;;;;;;5029091;28;20227;-64
2022/10/06 01:33:23;;;;;;;1.70;1.60;;;;;;;;;;5028766;28;20667;-64
2022/10/06 01:35:51;;;;;;;1.85;1.70;;;;;;;;;;5029188;28;20196;-64
2022/10/06 01:38:18;;;;;;;1.33;1.33;;;;;;;;;;5028745;28;20208;-64
2022/10/06 01:40:47;;;;;;;1.50;1.40;;;;;;;;;;5028992;28;20208;-64
2022/10/06 01:43:14;;;;;;;1.52;1.45;;;;;;;;;;5028923;28;20228;-64
2022/10/06 01:45:41;;;;;;;1.48;1.48;;;;;;;;;;5028722;28;20205;-64
2022/10/06 01:48:08;;;;;;;2.75;1.77;;;;;;;;;;5029077;28;20213;-64
2022/10/06 01:50:35;;;;;;;1.55;1.48;;;;;;;;;;5028252;28;20207;-63
2022/10/06 01:53:03;;;;;;;1.50;1.40;;;;;;;;;;5027687;28;20196;-64
2022/10/06 01:55:30;;;;;;;1.48;1.48;;;;;;;;;;5028718;28;20208;-63
2022/10/06 01:57:58;;;;;;;2.15;1.90;;;;;;;;;;5028442;28;20579;-63
2022/10/06 02:00:25;;;;;;;1.38;1.27;;;;;;;;;;5027589;28;20216;-65
2022/10/06 02:02:52;;;;;;;2.78;1.48;;;;;;;;;;5028888;28;20228;-64
2022/10/06 02:05:20;;;;;;;1.20;1.20;;;;;;;;;;5029290;28;20200;-63
2022/10/06 02:07:47;;;;;;;1.13;1.13;;;;;;;;;;5028685;28;20209;-64
2022/10/06 02:10:14;;;;;;;1.45;1.45;;;;;;;;;;5028906;28;20200;-64
2022/10/06 02:12:41;;;;;;;2.60;1.63;;;;;;;;;;5027257;28;20572;-64
2022/10/06 02:15:10;;;;;;;1.63;1.52;;;;;;;;;;5028564;28;20212;-63
2022/10/06 02:17:37;;;;;;;1.88;1.77;;;;;;;;;;5028425;28;20208;-64
2022/10/06 02:20:05;;;;;;;1.52;1.52;;;;;;;;;;5029021;28;20201;-64
2022/10/06 02:22:32;;;;;;;2.47;1.33;;;;;;;;;;5028591;28;20911;-65
2022/10/06 02:24:59;;;;;;;2.10;1.40;;;;;;;;;;5028100;28;20207;-64
2022/10/06 02:27:26;;;;;;;1.85;1.67;;;;;;;;;;5021410;28;21015;-64
2022/10/06 02:29:54;;;;;;;1.40;1.30;;;;;;;;;;5028327;28;20204;-64
2022/10/06 02:32:23;;;;;;;1.42;1.30;;;;;;;;;;5028847;28;20209;-64
2022/10/06 02:34:50;;;;;;;1.15;1.15;;;;;;;;;;5026508;28;20226;-64
2022/10/06 02:37:17;;;;;;;1.10;1.08;;;;;;;;;;5027570;28;20208;-64
2022/10/06 02:39:44;;;;;;;1.08;1.08;;;;;;;;;;5028302;28;20208;-64
2022/10/06 02:42:11;;;;;;;0.95;0.95;;;;;;;;;;5027708;28;20216;-64
2022/10/06 02:44:38;;;;;;;1.35;1.00;;;;;;;;;;5024471;28;20219;-64
2022/10/06 02:47:05;;;;;;;1.00;1.00;;;;;;;;;;5026267;28;20887;-64
2022/10/06 02:49:34;;;;;;;1.05;1.02;;;;;;;;;;5027726;28;20212;-64
2022/10/06 02:52:01;;;;;;;4.70;0.90;;;;;;;;;;5028361;28;20294;-64
2022/10/06 02:54:28;;;;;;;1.05;0.90;;;;;;;;;;5025760;28;20211;-64
2022/10/06 02:56:55;;;;;;;0.82;0.82;;;;;;;;;;5027699;28;20204;-64
2022/10/06 02:59:22;;;;;;;3.13;0.80;;;;;;;;;;5025364;28;20247;-64
2022/10/06 03:01:49;;;;;;;0.80;0.75;;;;;;;;;;5028107;28;20201;-64
2022/10/06 03:04:16;;;;;;;6.43;1.13;;;;;;;;;;5027416;28;20724;-64
2022/10/06 03:06:45;;;;;;;0.60;0.60;;;;;;;;;;5027676;28;20215;-63
2022/10/06 03:09:12;;;;;;;1.17;0.90;;;;;;;;;;5026979;28;20205;-63
2022/10/06 03:11:39;;;;;;;0.70;0.65;;;;;;;;;;5026925;28;20208;-63
2022/10/06 03:14:07;;;;;;;0.85;0.63;;;;;;;;;;5026649;28;20212;-64
2022/10/06 03:16:35;;;;;;;1.40;0.60;;;;;;;;;;5026387;28;20208;-64
2022/10/06 03:19:02;;;;;;;0.80;0.80;;;;;;;;;;5026945;28;20566;-63
2022/10/06 03:21:31;;;;;;;0.82;0.50;;;;;;;;;;5026682;28;20212;-64
2022/10/06 03:24:00;;;;;;;2.05;0.50;;;;;;;;;;5027100;28;20232;-64
2022/10/06 03:26:28;;;;;;;0.70;0.70;;;;;;;;;;5026877;28;20239;-64
2022/10/06 03:29:01;;;;;;;3.30;0.77;;;;;;;;;;5026277;28;20208;-62
2022/10/06 03:31:29;;;;;;;1.85;0.50;;;;;;;;;;5026258;28;20203;-61
2022/10/06 03:33:56;;;;;;;0.50;0.50;;;;;;;;;;5027922;28;20212;-64
2022/10/06 03:36:25;;;;;;;0.60;0.60;;;;;;;;;;5027692;28;20231;-63
2022/10/06 03:38:52;;;;;;;0.68;0.60;;;;;;;;;;5027025;28;20215;-64
2022/10/06 03:41:21;;;;;;;0.50;0.50;;;;;;;;;;5026426;28;20211;-64
2022/10/06 03:43:49;;;;;;;0.55;0.50;;;;;;;;;;5026828;28;20980;-63
2022/10/06 03:46:18;;;;;;;0.50;0.50;;;;;;;;;;5025904;28;20208;-64
2022/10/06 03:48:45;;;;;;;0.95;0.50;;;;;;;;;;5026517;28;20362;-64
2022/10/06 03:51:13;;;;;;;0.60;0.60;;;;;;;;;;5025590;28;20213;-61
2022/10/06 03:53:40;;;;;;;0.43;0.43;;;;;;;;;;5026963;28;20201;-61
2022/10/06 03:56:09;;;;;;;1.63;0.55;;;;;;;;;;5025847;28;20258;-61
2022/10/06 03:58:38;;;;;;;1.02;0.60;;;;;;;;;;5026014;28;20226;-62
2022/10/06 04:01:06;;;;;;;0.65;0.65;;;;;;;;;;5026664;28;20192;-63
2022/10/06 04:03:33;;;;;;;0.82;0.60;;;;;;;;;;5027061;28;20699;-63
2022/10/06 04:06:02;;;;;;;1.77;0.50;;;;;;;;;;5027290;28;20208;-64
2022/10/06 04:08:29;;;;;;;0.47;0.47;;;;;;;;;;5027341;28;20201;-64
2022/10/06 04:11:04;;;;;;;3.05;0.60;;;;;;;;;;5025039;28;20278;-64
2022/10/06 04:13:31;;;;;;;0.47;0.47;;;;;;;;;;5026128;28;20204;-64
2022/10/06 04:16:00;;;;;;;0.32;0.32;;;;;;;;;;5026663;28;20200;-64
2022/10/06 04:18:27;;;;;;;0.60;0.40;;;;;;;;;;5030792;28;20204;-64
2022/10/06 04:20:59;;;;;;;1.95;0.35;;;;;;;;;;5030131;28;20208;-64
2022/10/06 04:23:26;;;;;;;0.30;0.30;;;;;;;;;;5030378;28;20228;-61
2022/10/06 04:25:58;;;;;;;0.30;0.30;;;;;;;;;;5030229;28;20243;-63
2022/10/06 04:28:25;;;;;;;0.28;0.28;;;;;;;;;;5029779;28;20258;-63
2022/10/06 04:30:56;;;;;;;0.20;0.20;;;;;;;;;;5029429;28;20674;-63
2022/10/06 04:33:25;;;;;;;1.55;0.30;;;;;;;;;;5029615;28;20200;-62
2022/10/06 04:35:59;;;;;;;0.15;0.15;;;;;;;;;;5029097;28;20220;-62
2022/10/06 04:38:28;;;;;;;0.30;0.30;;;;;;;;;;5029520;28;20207;-62
2022/10/06 04:40:55;;;;;;;2.17;0.20;;;;;;;;;;5029294;28;20291;-62
2022/10/06 04:43:22;;;;;;;0.68;0.38;;;;;;;;;;5027675;28;20231;-63
2022/10/06 04:45:56;;;;;;;0.20;0.20;;;;;;;;;;5029665;28;20240;-63
2022/10/06 04:48:23;;;;;;;0.20;0.20;;;;;;;;;;5028727;28;20209;-63
2022/10/06 04:50:55;;;;;;;0.10;0.10;;;;;;;;;;5029807;28;20219;-63
2022/10/06 04:53:22;;;;;;;0.22;0.20;;;;;;;;;;5030002;28;20211;-63
2022/10/06 04:55:49;;;;;;;1.10;0.40;;;;;;;;;;5030036;28;20208;-63
2022/10/06 04:58:16;;;;;;;0.30;0.30;;;;;;;;;;5029173;28;20196;-63
2022/10/06 05:00:43;;;;;;;0.40;0.40;;;;;;;;;;5028806;28;20200;-63
2022/10/06 05:03:10;;;;;;;0.25;0.20;;;;;;;;;;5028763;28;20251;-63
2022/10/06 05:05:37;;;;;;;1.48;0.38;;;;;;;;;;5029954;28;20209;-62
2022/10/06 05:08:05;;;;;;;3.90;0.30;;;;;;;;;;5029664;28;20219;-63
2022/10/06 05:10:33;;;;;;;0.40;0.40;;;;;;;;;;5029933;28;20204;-62
2022/10/06 05:13:02;;;;;;;0.30;0.30;;;;;;;;;;5030804;28;20215;-62
2022/10/06 05:15:29;;;;;;;0.40;0.40;;;;;;;;;;5029355;28;20216;-61
2022/10/06 05:17:56;;;;;;;0.15;0.15;;;;;;;;;;5029482;28;20219;-62
2022/10/06 05:20:23;;;;;;;0.60;0.30;;;;;;;;;;5028427;28;20208;-62
2022/10/06 05:22:50;;;;;;;0.85;0.30;;;;;;;;;;5027690;28;20231;-62
2022/10/06 05:25:19;;;;;;;0.22;0.22;;;;;;;;;;5028416;28;20208;-62
2022/10/06 05:27:46;;;;;;;0.20;0.20;;;;;;;;;;5028689;28;20244;-62
2022/10/06 05:30:13;;;;;;;0.20;0.20;;;;;;;;;;5031278;28;20209;-62
2022/10/06 05:32:40;;;;;;;0.28;0.10;;;;;;;;;;5030653;28;20663;-61
2022/10/06 05:35:08;;;;;;;0.50;0.22;;;;;;;;;;5028638;28;20203;-62
2022/10/06 05:37:35;;;;;;;0.50;0.50;;;;;;;;;;5029949;28;20208;-62
2022/10/06 05:40:02;;;;;;;0.20;0.20;;;;;;;;;;5038140;28;20581;-61
2022/10/06 05:42:40;;;;;;;1.67;0.32;;;;;;;;;;5033714;28;20573;-62
2022/10/06 05:45:07;;;;;;;0.60;0.52;;;;;;;;;;5031284;28;20228;-62
2022/10/06 05:47:34;;;;;;;0.77;0.35;;;;;;;;;;5035748;28;20228;-65
2022/10/06 05:50:02;;;;;;;0.20;0.20;;;;;;;;;;5035847;28;20323;-62
2022/10/06 05:52:29;;;;;;;4.05;0.38;;;;;;;;;;5033974;28;20578;-62
2022/10/06 05:54:59;;;;;;;2.10;0.63;;;;;;;;;;5035242;28;20599;-63
2022/10/06 05:57:26;;;;;;;0.98;0.30;;;;;;;;;;5028294;28;20223;-62
2022/10/06 05:59:54;;;;;;;0.25;0.25;;;;;;;;;;5030398;28;20219;-62
2022/10/06 06:02:21;;;;;;;1.63;0.40;;;;;;;;;;5034910;28;20223;-63
2022/10/06 06:04:48;;;;;;;0.43;0.40;;;;;;;;;;5029835;28;20239;-63
2022/10/06 06:07:15;;;;;;;0.30;0.30;;;;;;;;;;5029365;28;20205;-62
2022/10/06 06:09:46;;;;;;;2.30;0.30;;;;;;;;;;5029732;28;20658;-63
2022/10/06 06:12:15;;;;;;;3.47;0.20;;;;;;;;;;5029891;28;20560;-63
2022/10/06 06:17:30;;;;;;;0.30;0.15;;;;;;;;;;5029842;28;20208;-63
2022/10/06 06:20:15;;;;;;;2.40;0.40;;;;;;;;;;5030076;28;20216;-62
2022/10/06 06:22:42;;;;;;;6.60;0.47;;;;;;;;;;5027390;28;20212;-62
2022/10/06 06:25:11;;;;;;;1.25;0.40;;;;;;;;;;5029270;28;20224;-63
2022/10/06 06:27:39;;;;;;;1.02;0.40;;;;;;;;;;5028916;28;20240;-62
2022/10/06 06:30:07;;;;;;;0.30;0.30;;;;;;;;;;5029257;28;20877;-62
2022/10/06 06:32:35;;;;;;;1.85;0.70;;;;;;;;;;5017460;28;20205;-62
2022/10/06 06:35:02;;;;;;;0.50;0.50;;;;;;;;;;5009574;28;20208;-62
2022/10/06 06:37:29;;;;;;;0.43;0.40;;;;;;;;;;5027569;28;20205;-62
2022/10/06 06:39:57;;;;;;;4.55;1.05;;;;;;;;;;5029452;28;20216;-62
2022/10/06 06:42:24;;;;;;;0.60;0.60;;;;;;;;;;5029080;28;20215;-62
2022/10/06 06:44:51;;;;;;;1.95;0.50;;;;;;;;;;5029282;28;20236;-62
2022/10/06 06:47:20;;;;;;;0.95;0.88;;;;;;;;;;5028560;28;20585;-62
2022/10/06 06:49:48;;;;;;;0.47;0.40;;;;;;;;;;5028043;28;20291;-61
2022/10/06 06:52:16;;;;;;;1.90;0.43;;;;;;;;;;5029115;28;20549;-62
2022/10/06 06:54:45;;;;;;;2.72;0.60;;;;;;;;;;5028907;28;20220;-62
2022/10/06 06:57:12;;;;;;;1.17;0.40;;;;;;;;;;5028978;28;20236;-62
2022/10/06 06:59:39;;;;;;;2.85;0.30;;;;;;;;;;5029079;28;20201;-62
2022/10/06 07:02:06;;;;;;;1.73;0.45;;;;;;;;;;5029143;28;20211;-62
2022/10/06 07:04:36;;;;;;;0.95;0.40;;;;;;;;;;5028960;28;20227;-62
2022/10/06 07:07:04;;;;;;;1.20;0.40;;;;;;;;;;5029518;28;20208;-62
2022/10/06 07:09:31;;;;;;;1.10;0.43;;;;;;;;;;5029562;28;20208;-62
2022/10/06 07:11:58;;;;;;;0.35;0.30;;;;;;;;;;5029286;28;20205;-62
2022/10/06 07:14:25;;;;;;;1.95;0.28;;;;;;;;;;5029096;28;20211;-63
2022/10/06 07:25:16;;;;;;;4.15;0.70;;;;;;;;;;5029013;28;20239;-61
2022/10/06 07:27:45;;;;;;;1.00;0.32;;;;;;;;;;5028518;28;20254;-61
2022/10/06 07:30:13;;;;;;;0.80;0.40;;;;;;;;;;5029347;28;20215;-61
2022/10/06 07:32:41;;;;;;;0.30;0.30;;;;;;;;;;5029254;28;20204;-61
2022/10/06 07:35:08;;;;;;;2.53;0.50;;;;;;;;;;5028823;28;20192;-61
2022/10/06 07:37:36;;;;;;;1.98;0.65;;;;;;;;;;5019827;28;20683;-63
2022/10/06 07:40:05;;;;;;;4.53;0.73;;;;;;;;;;5009897;28;20668;-62
2022/10/06 07:42:46;;;;;;;4.15;0.82;;;;;;;;;;5028309;28;20262;-62
2022/10/06 07:47:58;;;;;;;3.95;0.73;;;;;;;;;;5027883;28;20200;-62
2022/10/06 07:50:25;;;;;;;1.25;0.65;;;;;;;;;;5027996;28;20216;-61
2022/10/06 07:52:54;;;;;;;4.45;0.73;;;;;;;;;;5032093;28;20204;-61
2022/10/06 07:55:21;;;;;;;3.08;0.45;;;;;;;;;;5032135;28;20204;-61
2022/10/06 07:57:49;;;;;;;0.88;0.50;;;;;;;;;;5031907;28;20209;-61
2022/10/06 08:00:19;;;;;;;2.65;0.47;;;;;;;;;;5032362;28;20213;-62
2022/10/06 08:02:46;;;;;;;0.40;0.40;;;;;;;;;;5031915;28;20307;-62
2022/10/06 08:05:13;;;;;;;2.30;0.55;;;;;;;;;;5031951;28;20224;-61
2022/10/06 08:07:41;;;;;;;1.30;0.40;;;;;;;;;;5031637;28;20589;-61
2022/10/06 08:10:10;;;;;;;0.55;0.43;;;;;;;;;;5031534;28;20215;-62
2022/10/06 08:12:38;;;;;;;1.27;0.40;;;;;;;;;;5031011;28;20204;-59
2022/10/06 08:15:06;;;;;;;1.40;0.40;;;;;;;;;;5032159;28;20201;-61
2022/10/06 08:17:34;;;;;;;0.38;0.38;;;;;;;;;;5031842;28;20208;-59
2022/10/06 08:20:01;;;;;;;1.55;0.40;;;;;;;;;;5031525;28;20200;-59
2022/10/06 08:22:28;;;;;;;0.88;0.52;;;;;;;;;;5030719;28;20731;-59
2022/10/06 08:24:56;;;;;;;2.17;0.80;;;;;;;;;;5031096;28;20220;-59
2022/10/06 08:27:25;;;;;;;3.50;0.43;;;;;;;;;;5031691;28;20240;-59
2022/10/06 08:29:53;;;;;;;0.73;0.40;;;;;;;;;;5031760;28;20212;-58
2022/10/06 08:32:20;;;;;;;1.30;0.38;;;;;;;;;;5031172;28;20208;-58
2022/10/06 08:34:47;;;;;;;3.08;0.77;;;;;;;;;;5030786;28;20208;-59
2022/10/06 08:37:14;;;;;;;2.25;0.60;;;;;;;;;;5031404;28;20204;-59
2022/10/06 08:39:42;;;;;;;3.47;0.50;;;;;;;;;;5029529;28;20212;-59
2022/10/06 08:42:11;;;;;;;2.42;0.40;;;;;;;;;;5029377;28;20747;-62
2022/10/06 08:44:41;;;;;;;0.20;0.17;;;;;;;;;;5030538;28;20232;-62
2022/10/06 08:47:13;;;;;;;0.55;0.30;;;;;;;;;;5030847;28;20705;-58
2022/10/06 08:49:43;;;;;;;0.82;0.30;;;;;;;;;;5030843;28;20212;-60
2022/10/06 08:52:16;;;;;;;1.38;0.40;;;;;;;;;;5030131;28;20267;-61
2022/10/06 08:54:47;;;;;;;0.40;0.40;;;;;;;;;;5030968;28;20207;-60
2022/10/06 08:57:18;;;;;;;1.95;0.35;;;;;;;;;;5030538;28;20193;-60
2022/10/06 08:59:47;;;;;;;1.95;0.30;;;;;;;;;;5029101;28;20216;-60
2022/10/06 09:02:24;;;;;;;2.80;0.63;;;;;;;;;;5030997;28;20204;-60
2022/10/06 09:04:51;;;;;;;1.60;0.50;;;;;;;;;;5030670;28;20228;-59
2022/10/06 09:07:24;;;;;;;0.30;0.30;;;;;;;;;;5030813;28;20208;-59
2022/10/06 09:09:57;;;;;;;2.15;0.47;;;;;;;;;;5030869;28;20208;-61
2022/10/06 09:12:27;;;;;;;3.10;0.30;;;;;;;;;;5030290;28;20208;-62
2022/10/06 09:15:03;;;;;;;3.70;0.80;;;;;;;;;;5030272;28;20579;-60
2022/10/06 09:17:32;;;;;;;0.47;0.28;;;;;;;;;;5030759;28;20214;-61
2022/10/06 09:20:01;;;;;;;1.45;0.40;;;;;;;;;;5030203;28;20212;-60
2022/10/06 09:22:30;;;;;;;1.60;0.40;;;;;;;;;;5030562;28;20204;-60
2022/10/06 09:24:59;;;;;;;0.75;0.50;;;;;;;;;;5020101;28;20722;-60
2022/10/06 09:27:32;;;;;;;2.92;0.60;;;;;;;;;;5024542;28;20243;-60
2022/10/06 09:30:03;;;;;;;1.40;0.60;;;;;;;;;;5025557;28;20221;-61
2022/10/06 09:32:32;;;;;;;0.35;0.32;;;;;;;;;;5029069;28;20208;-61
2022/10/06 09:34:59;;;;;;;2.63;0.90;;;;;;;;;;5029851;28;20212;-60
2022/10/06 09:37:27;;;;;;;0.93;0.40;;;;;;;;;;5029545;28;20212;-60
2022/10/06 09:39:54;;;;;;;0.65;0.40;;;;;;;;;;5030210;28;20212;-61
2022/10/06 09:42:22;;;;;;;1.55;0.30;;;;;;;;;;5029649;28;20212;-61
2022/10/06 09:45:01;;;;;;;0.57;0.38;;;;;;;;;;5028826;28;20230;-61
2022/10/06 09:47:39;;;;;;;5.07;0.75;;;;;;;;;;5028178;28;20632;-61
2022/10/06 09:50:14;;;;;;;1.67;0.77;;;;;;;;;;5029707;28;20200;-61
2022/10/06 09:52:42;;;;;;;0.30;0.30;;;;;;;;;;5029751;28;20904;-61
2022/10/06 09:55:11;;;;;;;0.63;0.30;;;;;;;;;;5026505;28;20204;-60
2022/10/06 09:57:39;;;;;;;2.70;0.75;;;;;;;;;;5028749;28;20227;-60
2022/10/06 10:00:21;;;;;;;1.00;0.22;;;;;;;;;;5015572;28;20216;-61
2022/10/06 10:02:56;;;;;;;0.68;0.68;;;;;;;;;;5014064;28;20227;-61
2022/10/06 10:05:23;;;;;;;1.00;0.50;;;;;;;;;;5028663;28;20228;-60
2022/10/06 10:08:01;;;;;;;1.52;0.50;;;;;;;;;;5027300;28;20287;-61
2022/10/06 10:10:28;;;;;;;1.08;0.47;;;;;;;;;;5013838;28;20208;-61
2022/10/06 10:12:56;;;;;;;6.40;0.73;;;;;;;;;;5027767;28;20210;-61
2022/10/06 10:15:25;;;;;;;2.20;0.40;;;;;;;;;;5029206;28;20220;-61
2022/10/06 10:17:55;;;;;;;0.75;0.40;;;;;;;;;;5029552;28;20223;-60
2022/10/06 10:20:27;;;;;;;1.55;0.70;;;;;;;;;;5029118;28;20216;-60
2022/10/06 10:22:55;;;;;;;2.42;0.55;;;;;;;;;;5026246;28;20204;-61
2022/10/06 10:25:35;;;;;;;0.68;0.60;;;;;;;;;;5028548;28;20228;-61
2022/10/06 10:28:07;;;;;;;1.10;0.35;;;;;;;;;;5027238;28;20239;-60
2022/10/06 10:30:41;;;;;;;1.67;0.57;;;;;;;;;;5028935;28;20216;-60
2022/10/06 10:33:12;;;;;;;0.88;0.40;;;;;;;;;;5029270;28;20695;-59
2022/10/06 10:35:40;;;;;;;2.45;0.60;;;;;;;;;;5029169;28;20206;-59
2022/10/06 10:38:16;;;;;;;1.85;0.60;;;;;;;;;;5027108;28;20586;-60
2022/10/06 10:40:47;;;;;;;1.20;0.60;;;;;;;;;;5028175;28;20263;-61
2022/10/06 10:43:19;;;;;;;3.47;0.77;;;;;;;;;;5020931;28;20208;-63
2022/10/06 10:45:48;;;;;;;0.82;0.50;;;;;;;;;;5025656;28;20274;-63
2022/10/06 10:48:19;;;;;;;2.95;0.63;;;;;;;;;;5028277;28;20204;-68
2022/10/06 10:50:58;;;;;;;3.30;1.02;;;;;;;;;;5027920;28;20640;-61
2022/10/06 10:53:30;;;;;;;1.30;0.20;;;;;;;;;;5028461;28;20200;-60
2022/10/06 10:55:58;;;;;;;1.15;0.45;;;;;;;;;;5028482;28;20211;-65
2022/10/06 10:58:29;;;;;;;0.70;0.70;;;;;;;;;;5027614;28;20201;-62
2022/10/06 11:01:01;;;;;;;2.88;0.50;;;;;;;;;;5020786;28;20208;-61
2022/10/06 11:03:29;;;;;;;4.38;0.70;;;;;;;;;;5028101;28;20224;-59
2022/10/06 11:06:03;;;;;;;1.83;0.60;;;;;;;;;;5028152;28;20229;-61
2022/10/06 11:08:34;;;;;;;0.40;0.40;;;;;;;;;;5027291;28;20212;-61
2022/10/06 11:11:02;;;;;;;0.88;0.47;;;;;;;;;;5027624;28;20665;-61
2022/10/06 11:13:32;;;;;;;0.70;0.38;;;;;;;;;;5027381;28;20654;-61
2022/10/06 11:16:07;;;;;;;0.60;0.50;;;;;;;;;;5026988;28;20593;-62
2022/10/06 11:18:41;;;;;;;3.92;0.93;;;;;;;;;;5019607;28;20214;-67
2022/10/06 11:21:12;;;;;;;6.53;1.08;;;;;;;;;;5026479;28;20234;-66
2022/10/06 11:23:57;;;;;;;1.63;0.98;;;;;;;;;;5021139;28;20207;-62
2022/10/06 11:26:47;;;;;;;3.00;0.50;;;;;;;;;;5030930;28;20240;-62
2022/10/06 11:29:18;;;;;;;4.53;0.70;;;;;;;;;;5027657;28;20886;-62
2022/10/06 11:31:50;;;;;;;2.88;0.73;;;;;;;;;;5030742;28;20381;-61
2022/10/06 11:34:18;;;;;;;0.75;0.60;;;;;;;;;;5031892;28;20215;-62
2022/10/06 11:36:49;;;;;;;3.00;0.63;;;;;;;;;;5031946;28;20204;-61
2022/10/06 11:39:20;;;;;;;1.17;0.52;;;;;;;;;;5030968;28;20207;-61
2022/10/06 11:41:50;;;;;;;3.10;0.80;;;;;;;;;;5025502;28;20308;-62
2022/10/06 11:44:23;;;;;;;0.57;0.35;;;;;;;;;;5033237;28;20204;-61
2022/10/06 11:46:51;;;;;;;3.83;0.43;;;;;;;;;;5031286;28;20228;-61
2022/10/06 11:49:43;;;;;;;3.80;0.52;;;;;;;;;;5030032;28;20225;-61
2022/10/06 11:52:29;;;;;;;3.38;0.40;;;;;;;;;;5028894;28;20200;-62
2022/10/06 11:55:07;;;;;;;3.58;0.80;;;;;;;;;;5033058;28;20212;-61
2022/10/06 11:57:35;;;;;;;1.15;0.60;;;;;;;;;;5032008;28;20704;-61
2022/10/06 12:00:21;;;;;;;3.20;0.68;;;;;;;;;;5029359;28;20209;-62
2022/10/06 12:02:48;;;;;;;4.53;0.60;;;;;;;;;;5037227;28;20283;-61
2022/10/06 12:05:33;;;;;;;0.45;0.43;;;;;;;;;;5033528;28;20255;-61
2022/10/06 12:08:15;;;;;;;0.93;0.47;;;;;;;;;;5027429;28;20697;-62
2022/10/06 12:10:50;;;;;;;2.58;0.60;;;;;;;;;;5031287;28;20258;-62
2022/10/06 12:13:21;;;;;;;0.60;0.60;;;;;;;;;;5029260;28;20207;-60
2022/10/06 12:16:03;;;;;;;1.45;0.52;;;;;;;;;;5030234;28;20204;-61
2022/10/06 12:18:33;;;;;;;2.17;0.47;;;;;;;;;;5041716;28;20286;-59
2022/10/06 12:21:05;;;;;;;0.40;0.40;;;;;;;;;;5029703;28;20211;-61
2022/10/06 12:23:46;;;;;;;0.38;0.38;;;;;;;;;;5031693;28;20287;-61
2022/10/06 12:26:21;;;;;;;0.20;0.20;;;;;;;;;;5039553;28;20694;-61
2022/10/06 12:28:51;;;;;;;0.50;0.30;;;;;;;;;;5048739;28;20222;-61
2022/10/06 12:31:32;;;;;;;1.10;0.60;;;;;;;;;;5035756;28;20204;-62
2022/10/06 12:33:59;;;;;;;2.50;0.30;;;;;;;;;;5041137;28;20219;-62
2022/10/06 12:36:28;;;;;;;3.40;0.50;;;;;;;;;;5037461;28;20208;-62
2022/10/06 12:39:03;;;;;;;2.30;0.40;;;;;;;;;;5034336;28;20242;-61
2022/10/06 12:41:49;;;;;;;2.17;0.50;;;;;;;;;;5028317;28;20238;-62
2022/10/06 12:44:22;;;;;;;2.92;0.50;;;;;;;;;;5027890;28;20713;-62
2022/10/06 12:46:50;;;;;;;1.67;0.45;;;;;;;;;;5030372;28;20311;-62
2022/10/06 12:49:37;;;;;;;1.10;0.50;;;;;;;;;;5031231;28;20215;-62
2022/10/06 12:52:17;;;;;;;1.20;0.50;;;;;;;;;;5028422;28;20219;-61
2022/10/06 12:54:48;;;;;;;0.20;0.20;;;;;;;;;;5036023;28;20817;-62
2022/10/06 12:57:17;;;;;;;1.77;0.70;;;;;;;;;;5035343;28;20318;-67
2022/10/06 12:59:48;;;;;;;2.90;0.57;;;;;;;;;;5033318;28;20640;-62
2022/10/06 13:02:17;;;;;;;1.17;0.30;;;;;;;;;;5029412;28;20212;-63
2022/10/06 13:04:47;;;;;;;3.85;0.60;;;;;;;;;;5030462;28;20722;-62
2022/10/06 13:07:17;;;;;;;0.50;0.38;;;;;;;;;;5029381;28;20232;-63
2022/10/06 13:09:44;;;;;;;2.85;0.50;;;;;;;;;;5033729;28;20208;-62
2022/10/06 13:12:29;;;;;;;1.35;0.45;;;;;;;;;;5026964;28;20208;-62
2022/10/06 13:15:17;;;;;;;1.15;0.47;;;;;;;;;;5025434;28;20760;-62
2022/10/06 13:17:44;;;;;;;2.58;0.32;;;;;;;;;;5029865;28;20594;-62
2022/10/06 13:20:27;;;;;;;0.63;0.20;;;;;;;;;;5029605;28;20655;-62
2022/10/06 13:22:58;;;;;;;1.77;0.30;;;;;;;;;;5029411;28;20586;-62
2022/10/06 13:25:33;;;;;;;3.05;0.30;;;;;;;;;;5027253;28;20216;-62
2022/10/06 13:28:01;;;;;;;0.50;0.43;;;;;;;;;;5029084;28;20697;-62
2022/10/06 13:30:30;;;;;;;0.63;0.30;;;;;;;;;;5029903;28;20250;-63
2022/10/06 13:32:58;;;;;;;1.05;0.52;;;;;;;;;;5029862;28;20232;-63
2022/10/06 13:35:26;;;;;;;0.93;0.50;;;;;;;;;;5029183;28;20196;-62
2022/10/06 13:37:54;;;;;;;2.00;0.60;;;;;;;;;;5029032;28;20204;-62
2022/10/06 13:40:30;;;;;;;4.97;0.30;;;;;;;;;;5028974;28;20218;-62
2022/10/06 13:42:58;;;;;;;2.10;0.60;;;;;;;;;;5029162;28;20223;-62
2022/10/06 13:45:26;;;;;;;1.27;0.38;;;;;;;;;;5028957;28;20204;-63
2022/10/06 13:48:04;;;;;;;1.17;0.30;;;;;;;;;;5027955;28;20212;-62
2022/10/06 13:50:31;;;;;;;1.65;0.70;;;;;;;;;;5029273;28;20204;-63
2022/10/06 13:52:58;;;;;;;0.35;0.35;;;;;;;;;;5029088;28;20204;-63
2022/10/06 13:55:26;;;;;;;0.57;0.35;;;;;;;;;;5028708;28;20204;-63
2022/10/06 13:58:06;;;;;;;0.77;0.50;;;;;;;;;;5028998;28;20216;-63
2022/10/06 14:00:34;;;;;;;0.68;0.45;;;;;;;;;;5028383;28;20208;-63
2022/10/06 14:03:10;;;;;;;0.80;0.40;;;;;;;;;;5028615;28;20228;-64
2022/10/06 14:05:38;;;;;;;1.23;0.45;;;;;;;;;;5029008;28;20222;-63
2022/10/06 14:08:15;;;;;;;1.98;0.70;;;;;;;;;;5028993;28;20563;-63
2022/10/06 14:10:46;;;;;;;0.38;0.38;;;;;;;;;;5029084;28;20215;-63
2022/10/06 14:13:15;;;;;;;2.30;0.55;;;;;;;;;;5029146;28;20215;-63
2022/10/06 14:15:46;;;;;;;0.40;0.25;;;;;;;;;;5028841;28;20212;-62
2022/10/06 14:18:18;;;;;;;1.23;0.40;;;;;;;;;;5029028;28;20208;-63
2022/10/06 14:20:46;;;;;;;1.02;0.47;;;;;;;;;;5028621;28;20207;-63
2022/10/06 14:23:32;;;;;;;1.08;0.30;;;;;;;;;;5028123;28;20200;-62
2022/10/06 14:25:59;;;;;;;0.95;0.20;;;;;;;;;;5027747;28;20236;-63
2022/10/06 14:28:26;;;;;;;0.45;0.38;;;;;;;;;;5027866;28;20753;-63
2022/10/06 14:30:55;;;;;;;0.30;0.30;;;;;;;;;;5028890;28;20204;-62
2022/10/06 14:33:23;;;;;;;2.45;0.40;;;;;;;;;;5028467;28;20637;-62
2022/10/06 14:35:51;;;;;;;8.95;0.70;;;;;;;;;;5028489;28;20561;-62
2022/10/06 14:38:18;;;;;;;0.32;0.22;;;;;;;;;;5027517;28;20208;-62
2022/10/06 14:40:45;;;;;;;0.85;0.30;;;;;;;;;;5024807;28;20205;-62
2022/10/06 14:43:12;;;;;;;0.20;0.20;;;;;;;;;;5028556;28;20216;-61
2022/10/06 14:45:43;;;;;;;3.00;0.77;;;;;;;;;;5028008;28;20223;-61
2022/10/06 14:48:10;;;;;;;0.57;0.40;;;;;;;;;;5028151;28;20674;-61
2022/10/06 14:50:39;;;;;;;0.63;0.43;;;;;;;;;;5027984;28;20564;-61
2022/10/06 14:53:09;;;;;;;2.83;2.28;;;;;;;;;;5028079;28;20663;-61
2022/10/06 14:55:37;;;;;;;20.10;9.60;;;;;;;;;;5028146;28;20408;-61
2022/10/06 14:58:04;;;;;;;10.15;4.90;;;;;;;;;;5027949;28;20679;-61
2022/10/06 15:00:31;;;;;;;9.20;4.25;;;;;;;;;;5027901;28;20211;-60
2022/10/06 15:02:59;;;;;;;5.10;3.45;;;;;;;;;;5027886;28;20264;-60
2022/10/06 15:05:26;;;;;;;6.68;3.28;;;;;;;;;;5027103;28;20216;-61
2022/10/06 15:08:09;;;;;;;4.78;1.85;;;;;;;;;;5027684;28;21058;-61
2022/10/06 15:10:37;;;;;;;2.45;1.85;;;;;;;;;;5027249;28;20307;-61
2022/10/06 15:13:07;;;;;;;6.15;1.40;;;;;;;;;;5027044;28;20219;-61